Observation data for White River Lake on 07/07/2020      Previous  Date  Next       Current Mesonet Observations  Soil Data  Daily Summary Page  Observations in Plain Language
KWVS 070500Z 08004KT 24/19 A3004 RMK A01 T02370191  RH  080%=      5-min Rain = 0
KWVS 070505Z 10003KT 24/19 A3004 RMK A01 T02370191  RH  080%=      5-min Rain = 0
KWVS 070510Z 09003KT 24/19 A3004 RMK A01 T02360190  RH  079%=      5-min Rain = 0
KWVS 070515Z 09003KT 24/19 A3005 RMK A01 T02370190  RH  079%=      5-min Rain = 0
KWVS 070520Z 10003KT 24/19 A3004 RMK A01 T02370190  RH  079%=      5-min Rain = 0
KWVS 070525Z 10003KT 24/19 A3004 RMK A01 T02350189  RH  080%=      5-min Rain = 0
KWVS 070530Z 10003KT 24/19 A3004 RMK A01 T02350189  RH  080%=      5-min Rain = 0
KWVS 070535Z 10004KT 24/19 A3004 RMK A01 T02350189  RH  080%=      5-min Rain = 0
KWVS 070540Z 11006KT 23/19 A3004 RMK A01 T02330189  RH  081%=      5-min Rain = 0
KWVS 070545Z 10005KT 23/19 A3004 RMK A01 T02330189  RH  081%=      5-min Rain = 0
KWVS 070550Z 11004KT 23/19 A3004 RMK A01 T02320189  RH  081%=      5-min Rain = 0
KWVS 070555Z 12003KT 23/19 A3004 RMK A01 T02310188  RH  081%=      5-min Rain = 0
KWVS 070600Z 12004KT 23/19 A3004 RMK A01 T02320188  RH  080%=      5-min Rain = 0
KWVS 070605Z 12002KT 23/19 A3003 RMK A01 T02330188  RH  080%=      5-min Rain = 0
KWVS 070610Z 12002KT 23/19 A3003 RMK A01 T02330187  RH  079%=      5-min Rain = 0
KWVS 070615Z 12003KT 23/19 A3003 RMK A01 T02340187  RH  079%=      5-min Rain = 0
KWVS 070620Z 11003KT 23/19 A3003 RMK A01 T02330188  RH  080%=      5-min Rain = 0
KWVS 070625Z 11004KT 23/19 A3003 RMK A01 T02320188  RH  081%=      5-min Rain = 0
KWVS 070630Z 11003KT 23/19 A3003 RMK A01 T02310188  RH  081%=      5-min Rain = 0
KWVS 070635Z 10004KT 23/19 A3003 RMK A01 T02300189  RH  082%=      5-min Rain = 0
KWVS 070640Z 11003KT 23/19 A3003 RMK A01 T02290189  RH  083%=      5-min Rain = 0
KWVS 070645Z 12003KT 23/19 A3003 RMK A01 T02290188  RH  082%=      5-min Rain = 0
KWVS 070650Z 12003KT 23/19 A3003 RMK A01 T02300187  RH  081%=      5-min Rain = 0
KWVS 070655Z 11002KT 23/19 A3003 RMK A01 T02310187  RH  081%=      5-min Rain = 0
KWVS 070700Z 11000KT 23/19 A3003 RMK A01 T02300189  RH  082%=      5-min Rain = 0
KWVS 070705Z 32001KT 23/19 A3003 RMK A01 T02250194  RH  087%=      5-min Rain = 0
KWVS 070710Z 31003KT 22/19 A3003 RMK A01 T02230194  RH  089%=      5-min Rain = 0
KWVS 070715Z 31002KT 22/19 A3002 RMK A01 T02220193  RH  088%=      5-min Rain = 0
KWVS 070720Z 31001KT 22/19 A3002 RMK A01 T02230191  RH  087%=      5-min Rain = 0
KWVS 070725Z 32001KT 22/19 A3002 RMK A01 T02240189  RH  085%=      5-min Rain = 0
KWVS 070730Z 32001KT 22/19 A3002 RMK A01 T02240189  RH  085%=      5-min Rain = 0
KWVS 070735Z 32001KT 22/19 A3002 RMK A01 T02230190  RH  086%=      5-min Rain = 0
KWVS 070740Z 32002KT 22/19 A3002 RMK A01 T02230190  RH  086%=      5-min Rain = 0
KWVS 070745Z 30002KT 22/19 A3002 RMK A01 T02230189  RH  086%=      5-min Rain = 0
KWVS 070750Z 29003KT 22/19 A3002 RMK A01 T02230189  RH  086%=      5-min Rain = 0
KWVS 070755Z 27000KT 22/19 A3002 RMK A01 T02210189  RH  087%=      5-min Rain = 0
KWVS 070800Z 27000KT 22/19 A3002 RMK A01 T02230188  RH  085%=      5-min Rain = 0
KWVS 070805Z 00000KT 23/19 A3002 RMK A01 T02260188  RH  084%=      5-min Rain = 0
KWVS 070810Z 35000KT 23/19 A3002 RMK A01 T02270187  RH  082%=      5-min Rain = 0
KWVS 070815Z 35003KT 23/19 A3002 RMK A01 T02250187  RH  084%=      5-min Rain = 0
KWVS 070820Z 35003KT 22/19 A3002 RMK A01 T02220187  RH  085%=      5-min Rain = 0
KWVS 070825Z 35005KT 22/19 A3002 RMK A01 T02190187  RH  087%=      5-min Rain = 0
KWVS 070830Z 00004KT 22/19 A3002 RMK A01 T02170188  RH  088%=      5-min Rain = 0
KWVS 070835Z 00004KT 22/19 A3002 RMK A01 T02160188  RH  089%=      5-min Rain = 0
KWVS 070840Z 00003KT 22/19 A3002 RMK A01 T02150187  RH  089%=      5-min Rain = 0
KWVS 070845Z 00004KT 22/19 A3002 RMK A01 T02150188  RH  089%=      5-min Rain = 0
KWVS 070850Z 00003KT 22/19 A3003 RMK A01 T02150187  RH  089%=      5-min Rain = 0
KWVS 070855Z 36003KT 21/19 A3003 RMK A01 T02140187  RH  089%=      5-min Rain = 0
KWVS 070900Z 35003KT 21/19 A3002 RMK A01 T02130186  RH  090%=      5-min Rain = 0
KWVS 070905Z 35003KT 21/19 A3002 RMK A01 T02120186  RH  090%=      5-min Rain = 0
KWVS 070910Z 35003KT 21/19 A3002 RMK A01 T02120186  RH  090%=      5-min Rain = 0
KWVS 070915Z 35003KT 21/19 A3002 RMK A01 T02120187  RH  090%=      5-min Rain = 0
KWVS 070920Z 35004KT 21/19 A3003 RMK A01 T02120186  RH  090%=      5-min Rain = 0
KWVS 070925Z 01004KT 21/19 A3003 RMK A01 T02120186  RH  090%=      5-min Rain = 0
KWVS 070930Z 01005KT 21/19 A3003 RMK A01 T02120186  RH  090%=      5-min Rain = 0
KWVS 070935Z 01006KT 21/19 A3003 RMK A01 T02120186  RH  090%=      5-min Rain = 0
KWVS 070940Z 01005KT 21/19 A3003 RMK A01 T02120186  RH  090%=      5-min Rain = 0
KWVS 070945Z 00005KT 21/19 A3003 RMK A01 T02110185  RH  090%=      5-min Rain = 0
KWVS 070950Z 01006KT 21/19 A3003 RMK A01 T02100185  RH  091%=      5-min Rain = 0
KWVS 070955Z 01007KT 21/19 A3003 RMK A01 T02090186  RH  091%=      5-min Rain = 0
KWVS 071000Z 01006KT 21/19 A3003 RMK A01 T02080186  RH  092%=      5-min Rain = 0
KWVS 071005Z 01006KT 21/19 A3003 RMK A01 T02080186  RH  092%=      5-min Rain = 0
KWVS 071010Z 00006KT 21/19 A3003 RMK A01 T02080186  RH  092%=      5-min Rain = 0
KWVS 071015Z 00005KT 21/19 A3003 RMK A01 T02080185  RH  092%=      5-min Rain = 0
KWVS 071020Z 36006KT 21/19 A3003 RMK A01 T02070185  RH  092%=      5-min Rain = 0
KWVS 071025Z 36005KT 21/19 A3003 RMK A01 T02060185  RH  092%=      5-min Rain = 0
KWVS 071030Z 00005KT 21/19 A3003 RMK A01 T02060185  RH  092%=      5-min Rain = 0
KWVS 071035Z 01004KT 21/19 A3003 RMK A01 T02060185  RH  093%=      5-min Rain = 0
KWVS 071040Z 03004KT 21/19 A3004 RMK A01 T02060185  RH  093%=      5-min Rain = 0
KWVS 071045Z 03004KT 21/19 A3004 RMK A01 T02060185  RH  093%=      5-min Rain = 0
KWVS 071050Z 03004KT 21/19 A3004 RMK A01 T02060185  RH  093%=      5-min Rain = 0
KWVS 071055Z 03004KT 21/19 A3004 RMK A01 T02060185  RH  093%=      5-min Rain = 0
KWVS 071100Z 03005KT 21/19 A3004 RMK A01 T02060186  RH  093%=      5-min Rain = 0
KWVS 071105Z 03005KT 21/19 A3004 RMK A01 T02070186  RH  093%=      5-min Rain = 0
KWVS 071110Z 03006KT 21/19 A3004 RMK A01 T02080186  RH  092%=      5-min Rain = 0
KWVS 071115Z 02007KT 21/19 A3004 RMK A01 T02070185  RH  092%=      5-min Rain = 0
KWVS 071120Z 01006KT 21/19 A3004 RMK A01 T02060185  RH  093%=      5-min Rain = 0
KWVS 071125Z 00006KT 20/18 A3004 RMK A01 T02040184  RH  093%=      5-min Rain = 0
KWVS 071130Z 01006KT 20/19 A3004 RMK A01 T02040185  RH  094%=      5-min Rain = 0
KWVS 071135Z 03006KT 20/19 A3004 RMK A01 T02040185  RH  094%=      5-min Rain = 0
KWVS 071140Z 03006KT 21/19 A3004 RMK A01 T02050185  RH  094%=      5-min Rain = 0
KWVS 071145Z 03007KT 21/19 A3004 RMK A01 T02060186  RH  094%=      5-min Rain = 0
KWVS 071150Z 03006KT 21/19 A3004 RMK A01 T02060186  RH  094%=      5-min Rain = 0
KWVS 071155Z 04006KT 21/19 A3004 RMK A01 T02060186  RH  093%=      5-min Rain = 0
KWVS 071200Z 04005KT 21/19 A3004 RMK A01 T02070187  RH  093%=      5-min Rain = 0
KWVS 071205Z 04005KT 21/19 A3004 RMK A01 T02090188  RH  093%=      5-min Rain = 0
KWVS 071210Z 02005KT 21/19 A3004 RMK A01 T02100188  RH  093%=      5-min Rain = 0
KWVS 071215Z 01006KT 21/19 A3004 RMK A01 T02090188  RH  093%=      5-min Rain = 0
KWVS 071220Z 01006KT 21/19 A3004 RMK A01 T02090188  RH  093%=      5-min Rain = 0
KWVS 071225Z 02006KT 21/19 A3004 RMK A01 T02100190  RH  093%=      5-min Rain = 0
KWVS 071230Z 03006KT 21/19 A3004 RMK A01 T02140192  RH  093%=      5-min Rain = 0
KWVS 071235Z 02006KT 22/19 A3004 RMK A01 T02170193  RH  091%=      5-min Rain = 0
KWVS 071240Z 03006KT 22/19 A3004 RMK A01 T02190193  RH  090%=      5-min Rain = 0
KWVS 071245Z 04006KT 22/19 A3004 RMK A01 T02200193  RH  090%=      5-min Rain = 0
KWVS 071250Z 04004KT 22/20 A3005 RMK A01 T02230195  RH  089%=      5-min Rain = 0
KWVS 071255Z 04005KT 23/20 A3005 RMK A01 T02260195  RH  088%=      5-min Rain = 0
KWVS 071300Z 05005KT 23/20 A3005 RMK A01 T02280195  RH  087%=      5-min Rain = 0
KWVS 071305Z 06004KT 23/20 A3005 RMK A01 T02290195  RH  086%=      5-min Rain = 0
KWVS 071310Z 05004KT 23/19 A3005 RMK A01 T02290194  RH  085%=      5-min Rain = 0
KWVS 071315Z 05005KT 23/20 A3005 RMK A01 T02320196  RH  085%=      5-min Rain = 0
KWVS 071320Z 04006KT 23/20 A3005 RMK A01 T02320196  RH  085%=      5-min Rain = 0
KWVS 071325Z 06004KT 23/20 A3005 RMK A01 T02330196  RH  085%=      5-min Rain = 0
KWVS 071330Z 06002KT 24/20 A3005 RMK A01 T02360197  RH  083%=      5-min Rain = 0
KWVS 071335Z 03002KT 24/20 A3005 RMK A01 T02400198  RH  082%=      5-min Rain = 0
KWVS 071340Z 06003KT 24/20 A3005 RMK A01 T02420198  RH  081%=      5-min Rain = 0
KWVS 071345Z 04003KT 24/20 A3005 RMK A01 T02410198  RH  082%=      5-min Rain = 0
KWVS 071350Z 05002KT 24/20 A3006 RMK A01 T02430199  RH  081%=      5-min Rain = 0
KWVS 071355Z 09003KT 25/20 A3006 RMK A01 T02460199  RH  079%=      5-min Rain = 0
KWVS 071400Z 05003KT 25/20 A3006 RMK A01 T02470198  RH  079%=      5-min Rain = 0
KWVS 071405Z 11002G7KT 25/20 A3006 RMK A01 T02480198  RH  078%=      5-min Rain = 0
KWVS 071410Z 07003KT 25/20 A3006 RMK A01 T02500198  RH  078%=      5-min Rain = 0
KWVS 071415Z 04002KT 25/20 A3006 RMK A01 T02510198  RH  077%=      5-min Rain = 0
KWVS 071420Z 05001KT 26/20 A3006 RMK A01 T02550198  RH  075%=      5-min Rain = 0
KWVS 071425Z 09002KT 26/20 A3006 RMK A01 T02560196  RH  074%=      5-min Rain = 0
KWVS 071430Z 14003KT 26/20 A3006 RMK A01 T02560196  RH  073%=      5-min Rain = 0
KWVS 071435Z 12003KT 26/20 A3006 RMK A01 T02560195  RH  073%=      5-min Rain = 0
KWVS 071440Z 12003KT 26/19 A3006 RMK A01 T02570192  RH  071%=      5-min Rain = 0
KWVS 071445Z 15002KT 26/19 A3006 RMK A01 T02580189  RH  069%=      5-min Rain = 0
KWVS 071450Z 10002KT 26/19 A3006 RMK A01 T02610192  RH  069%=      5-min Rain = 0
KWVS 071455Z 06001KT 26/19 A3006 RMK A01 T02620190  RH  068%=      5-min Rain = 0
KWVS 071500Z 04002KT 26/19 A3006 RMK A01 T02640191  RH  068%=      5-min Rain = 0
KWVS 071505Z 06003KT 27/19 A3006 RMK A01 T02650192  RH  068%=      5-min Rain = 0
KWVS 071510Z 04003KT 27/19 A3006 RMK A01 T02660188  RH  066%=      5-min Rain = 0
KWVS 071515Z 04003KT 27/19 A3007 RMK A01 T02670188  RH  066%=      5-min Rain = 0
KWVS 071520Z 00001KT 27/19 A3006 RMK A01 T02700190  RH  065%=      5-min Rain = 0
KWVS 071525Z 10005KT 27/19 A3006 RMK A01 T02730191  RH  064%=      5-min Rain = 0
KWVS 071530Z 10003KT 27/19 A3006 RMK A01 T02700187  RH  064%=      5-min Rain = 0
KWVS 071535Z 07005KT 27/19 A3006 RMK A01 T02720185  RH  062%=      5-min Rain = 0
KWVS 071540Z 05003KT 27/18 A3006 RMK A01 T02710182  RH  061%=      5-min Rain = 0
KWVS 071545Z 08003G8KT 27/18 A3006 RMK A01 T02740183  RH  061%=      5-min Rain = 0
KWVS 071550Z 09005KT 28/19 A3006 RMK A01 T02750185  RH  061%=      5-min Rain = 0
KWVS 071555Z 09003G8KT 28/19 A3006 RMK A01 T02770187  RH  061%=      5-min Rain = 0
KWVS 071600Z 09004KT 28/18 A3006 RMK A01 T02790184  RH  060%=      5-min Rain = 0
KWVS 071605Z 08006KT 28/18 A3006 RMK A01 T02780184  RH  060%=      5-min Rain = 0
KWVS 071610Z 10006G12KT 28/18 A3006 RMK A01 T02780183  RH  059%=      5-min Rain = 0
KWVS 071615Z 10005KT 28/18 A3006 RMK A01 T02790183  RH  059%=      5-min Rain = 0
KWVS 071620Z 08005KT 28/18 A3006 RMK A01 T02810181  RH  058%=      5-min Rain = 0
KWVS 071625Z 07003KT 28/18 A3006 RMK A01 T02820182  RH  058%=      5-min Rain = 0
KWVS 071630Z 11007KT 29/18 A3006 RMK A01 T02850180  RH  056%=      5-min Rain = 0
KWVS 071635Z 13005KT 28/18 A3006 RMK A01 T02840179  RH  056%=      5-min Rain = 0
KWVS 071640Z 15003KT 29/17 A3006 RMK A01 T02850172  RH  053%=      5-min Rain = 0
KWVS 071645Z 05003KT 29/18 A3006 RMK A01 T02890175  RH  053%=      5-min Rain = 0
KWVS 071650Z 03004KT 29/17 A3006 RMK A01 T02900170  RH  051%=      5-min Rain = 0
KWVS 071655Z 18002KT 29/18 A3006 RMK A01 T02920175  RH  052%=      5-min Rain = 0
KWVS 071700Z 10003KT 29/18 A3006 RMK A01 T02940177  RH  052%=      5-min Rain = 0
KWVS 071705Z 10004KT 30/17 A3006 RMK A01 T02970174  RH  050%=      5-min Rain = 0
KWVS 071710Z 11004KT 30/17 A3006 RMK A01 T02990173  RH  049%=      5-min Rain = 0
KWVS 071715Z 15004KT 30/18 A3006 RMK A01 T03000177  RH  050%=      5-min Rain = 0
KWVS 071720Z 17004KT 30/18 A3005 RMK A01 T02980176  RH  050%=      5-min Rain = 0
KWVS 071725Z 14002KT 29/18 A3005 RMK A01 T02900176  RH  053%=      5-min Rain = 0
KWVS 071730Z 14005G10KT 29/18 A3005 RMK A01 T02940181  RH  053%=      5-min Rain = 0
KWVS 071735Z 13003KT 29/18 A3005 RMK A01 T02930180  RH  053%=      5-min Rain = 0
KWVS 071740Z 30002KT 29/18 A3005 RMK A01 T02940179  RH  053%=      5-min Rain = 0
KWVS 071745Z 09006G11KT 30/18 A3005 RMK A01 T03000180  RH  051%=      5-min Rain = 0
KWVS 071750Z 14004G9KT 30/18 A3005 RMK A01 T02990178  RH  051%=      5-min Rain = 0
KWVS 071755Z 15008KT 30/18 A3005 RMK A01 T03040179  RH  050%=      5-min Rain = 0
KWVS 071800Z 17005KT 30/18 A3005 RMK A01 T03010175  RH  050%=      5-min Rain = 0
KWVS 071805Z 15004G9KT 30/17 A3005 RMK A01 T03000174  RH  049%=      5-min Rain = 0
KWVS 071810Z 12008KT 30/18 A3005 RMK A01 T03040176  RH  049%=      5-min Rain = 0
KWVS 071815Z 12007G12KT 31/17 A3005 RMK A01 T03050173  RH  048%=      5-min Rain = 0
KWVS 071820Z 12003KT 31/17 A3005 RMK A01 T03050172  RH  047%=      5-min Rain = 0
KWVS 071825Z 10002G8KT 31/17 A3004 RMK A01 T03060171  RH  046%=      5-min Rain = 0
KWVS 071830Z 06009KT 31/17 A3004 RMK A01 T03080167  RH  045%=      5-min Rain = 0
KWVS 071835Z 04005G10KT 31/16 A3004 RMK A01 T03060164  RH  045%=      5-min Rain = 0
KWVS 071840Z 08004G9KT 31/17 A3004 RMK A01 T03080168  RH  045%=      5-min Rain = 0
KWVS 071845Z 06006G11KT 31/17 A3004 RMK A01 T03100168  RH  045%=      5-min Rain = 0
KWVS 071850Z 03006G12KT 31/17 A3004 RMK A01 T03120166  RH  044%=      5-min Rain = 0
KWVS 071855Z 06007G12KT 32/17 A3003 RMK A01 T03160172  RH  044%=      5-min Rain = 0
KWVS 071900Z 08009KT 31/17 A3003 RMK A01 T03140174  RH  045%=      5-min Rain = 0
KWVS 071905Z 05004G9KT 31/17 A3003 RMK A01 T03140168  RH  044%=      5-min Rain = 0
KWVS 071910Z 01003KT 32/17 A3003 RMK A01 T03150170  RH  044%=      5-min Rain = 0
KWVS 071915Z 10007G12KT 32/18 A3003 RMK A01 T03180176  RH  045%=      5-min Rain = 0
KWVS 071920Z 12006KT 31/17 A3002 RMK A01 T03120170  RH  045%=      5-min Rain = 0
KWVS 071925Z 08007G12KT 31/17 A3002 RMK A01 T03140169  RH  044%=      5-min Rain = 0
KWVS 071930Z 11007G13KT 32/17 A3002 RMK A01 T03160168  RH  043%=      5-min Rain = 0
KWVS 071935Z 14005KT 32/17 A3002 RMK A01 T03150165  RH  042%=      5-min Rain = 0
KWVS 071940Z 11005KT 32/17 A3001 RMK A01 T03190166  RH  042%=      5-min Rain = 0
KWVS 071945Z 09005G11KT 32/16 A3001 RMK A01 T03150161  RH  041%=      5-min Rain = 0
KWVS 071950Z 13004KT 32/16 A3001 RMK A01 T03170159  RH  040%=      5-min Rain = 0
KWVS 071955Z 10007G12KT 32/16 A3001 RMK A01 T03200161  RH  040%=      5-min Rain = 0
KWVS 072000Z 09006KT 32/15 A3001 RMK A01 T03190154  RH  039%=      5-min Rain = 0
KWVS 072005Z 12004G12KT 32/16 A3001 RMK A01 T03190156  RH  039%=      5-min Rain = 0
KWVS 072010Z 12005G13KT 32/16 A30 RMK A01 T03190158  RH  040%=      5-min Rain = 0
KWVS 072015Z 06006G12KT 32/16 A30 RMK A01 T03200163  RH  041%=      5-min Rain = 0
KWVS 072020Z 08004KT 32/17 A30 RMK A01 T03230166  RH  041%=      5-min Rain = 0
KWVS 072025Z 11004KT 32/16 A2999 RMK A01 T03220161  RH  040%=      5-min Rain = 0
KWVS 072030Z 09007KT 32/17 A2999 RMK A01 T03200166  RH  042%=      5-min Rain = 0
KWVS 072035Z 04008KT 32/17 A2999 RMK A01 T03230167  RH  041%=      5-min Rain = 0
KWVS 072040Z 08005KT 32/16 A2999 RMK A01 T03230163  RH  040%=      5-min Rain = 0
KWVS 072045Z 05005KT 32/16 A2999 RMK A01 T03220163  RH  040%=      5-min Rain = 0
KWVS 072050Z 07007KT 33/16 A2998 RMK A01 T03250164  RH  040%=      5-min Rain = 0
KWVS 072055Z 06006G13KT 32/16 A2998 RMK A01 T03240161  RH  039%=      5-min Rain = 0
KWVS 072100Z 05006G11KT 33/16 A2998 RMK A01 T03280163  RH  039%=      5-min Rain = 0
KWVS 072105Z 07008G14KT 33/16 A2998 RMK A01 T03250161  RH  039%=      5-min Rain = 0
KWVS 072110Z 10005G10KT 33/16 A2998 RMK A01 T03260159  RH  039%=      5-min Rain = 0
KWVS 072115Z 08006G11KT 33/16 A2998 RMK A01 T03270162  RH  039%=      5-min Rain = 0
KWVS 072120Z 09005G10KT 33/16 A2997 RMK A01 T03260158  RH  038%=      5-min Rain = 0
KWVS 072125Z 10005KT 33/16 A2997 RMK A01 T03270159  RH  038%=      5-min Rain = 0
KWVS 072130Z 06008KT 33/16 A2997 RMK A01 T03270161  RH  039%=      5-min Rain = 0
KWVS 072135Z 06007KT 33/16 A2997 RMK A01 T03270157  RH  038%=      5-min Rain = 0
KWVS 072140Z 04006KT 33/16 A2996 RMK A01 T03280157  RH  038%=      5-min Rain = 0
KWVS 072145Z 07007G12KT 33/16 A2996 RMK A01 T03280161  RH  039%=      5-min Rain = 0
KWVS 072150Z 05007KT 33/16 A2996 RMK A01 T03340164  RH  038%=      5-min Rain = 0
KWVS 072155Z 08008KT 33/16 A2996 RMK A01 T03320159  RH  037%=      5-min Rain = 0
KWVS 072200Z 08004KT 33/16 A2996 RMK A01 T03290156  RH  037%=      5-min Rain = 0
KWVS 072205Z 06003G9KT 33/16 A2996 RMK A01 T03330160  RH  037%=      5-min Rain = 0
KWVS 072210Z 09009G14KT 33/17 A2995 RMK A01 T03320165  RH  039%=      5-min Rain = 0
KWVS 072215Z 05007G13KT 33/16 A2995 RMK A01 T03320164  RH  039%=      5-min Rain = 0
KWVS 072220Z 11007G13KT 33/16 A2995 RMK A01 T03300163  RH  039%=      5-min Rain = 0
KWVS 072225Z 08008G13KT 32/16 A2995 RMK A01 T03240162  RH  040%=      5-min Rain = 0
KWVS 072230Z 08009G16KT 33/16 A2995 RMK A01 T03260163  RH  040%=      5-min Rain = 0
KWVS 072235Z 07009G14KT 33/17 A2995 RMK A01 T03260165  RH  040%=      5-min Rain = 0
KWVS 072240Z 08008G13KT 33/16 A2995 RMK A01 T03260164  RH  040%=      5-min Rain = 0
KWVS 072245Z 12008KT 33/16 A2995 RMK A01 T03250163  RH  040%=      5-min Rain = 0
KWVS 072250Z 13008G13KT 33/17 A2994 RMK A01 T03300167  RH  040%=      5-min Rain = 0
KWVS 072255Z 08007G12KT 33/16 A2994 RMK A01 T03290163  RH  039%=      5-min Rain = 0
KWVS 072300Z 07006KT 33/16 A2995 RMK A01 T03290163  RH  039%=      5-min Rain = 0
KWVS 072305Z 13007KT 33/16 A2995 RMK A01 T03310163  RH  039%=      5-min Rain = 0
KWVS 072310Z 10011G16KT 33/17 A2995 RMK A01 T03290165  RH  039%=      5-min Rain = 0
KWVS 072315Z 11008KT 33/16 A2995 RMK A01 T03270162  RH  039%=      5-min Rain = 0
KWVS 072320Z 09008G14KT 32/16 A2994 RMK A01 T03240163  RH  040%=      5-min Rain = 0
KWVS 072325Z 10011KT 32/17 A2994 RMK A01 T03240165  RH  040%=      5-min Rain = 0
KWVS 072330Z 13007KT 33/17 A2994 RMK A01 T03260165  RH  040%=      5-min Rain = 0
KWVS 072335Z 13010KT 33/16 A2994 RMK A01 T03270163  RH  039%=      5-min Rain = 0
KWVS 072340Z 14009KT 33/16 A2994 RMK A01 T03290163  RH  039%=      5-min Rain = 0
KWVS 072345Z 13007KT 33/16 A2994 RMK A01 T03280159  RH  038%=      5-min Rain = 0
KWVS 072350Z 10007G13KT 33/16 A2994 RMK A01 T03250157  RH  038%=      5-min Rain = 0
KWVS 072355Z 12008KT 33/16 A2994 RMK A01 T03260159  RH  038%=      5-min Rain = 0
KWVS 080000Z 10008KT 33/16 A2994 RMK A01 T03260158  RH  038%=      5-min Rain = 0
KWVS 080005Z 11009KT 32/16 A2993 RMK A01 T03240156  RH  038%=      5-min Rain = 0
KWVS 080010Z 10009KT 32/15 A2993 RMK A01 T03230152  RH  037%=      5-min Rain = 0
KWVS 080015Z 12008KT 32/15 A2993 RMK A01 T03220150  RH  037%=      5-min Rain = 0
KWVS 080020Z 11010KT 32/16 A2994 RMK A01 T03230157  RH  039%=      5-min Rain = 0
KWVS 080025Z 12010KT 32/16 A2993 RMK A01 T03200159  RH  040%=      5-min Rain = 0
KWVS 080030Z 10010KT 32/16 A2993 RMK A01 T03180159  RH  040%=      5-min Rain = 0
KWVS 080035Z 12010KT 32/16 A2993 RMK A01 T03180162  RH  041%=      5-min Rain = 0
KWVS 080040Z 10009KT 32/17 A2994 RMK A01 T03170166  RH  042%=      5-min Rain = 0
KWVS 080045Z 09010KT 32/16 A2994 RMK A01 T03150164  RH  042%=      5-min Rain = 0
KWVS 080050Z 10010KT 31/16 A2994 RMK A01 T03140164  RH  042%=      5-min Rain = 0
KWVS 080055Z 11010KT 31/17 A2994 RMK A01 T03140165  RH  043%=      5-min Rain = 0
KWVS 080100Z 11009KT 31/17 A2994 RMK A01 T03130165  RH  043%=      5-min Rain = 0
KWVS 080105Z 11008KT 31/17 A2994 RMK A01 T03110166  RH  044%=      5-min Rain = 0
KWVS 080110Z 11009KT 31/17 A2994 RMK A01 T03090166  RH  044%=      5-min Rain = 0
KWVS 080115Z 10008KT 31/17 A2994 RMK A01 T03070167  RH  045%=      5-min Rain = 0
KWVS 080120Z 10009KT 31/17 A2994 RMK A01 T03050166  RH  045%=      5-min Rain = 0
KWVS 080125Z 10009KT 30/17 A2994 RMK A01 T03030169  RH  047%=      5-min Rain = 0
KWVS 080130Z 10007KT 30/17 A2994 RMK A01 T03010170  RH  048%=      5-min Rain = 0
KWVS 080135Z 10008KT 30/17 A2994 RMK A01 T03000169  RH  048%=      5-min Rain = 0
KWVS 080140Z 10007KT 30/17 A2995 RMK A01 T02980169  RH  048%=      5-min Rain = 0
KWVS 080145Z 10008KT 30/17 A2995 RMK A01 T02960169  RH  049%=      5-min Rain = 0
KWVS 080150Z 10008KT 29/17 A2995 RMK A01 T02940169  RH  049%=      5-min Rain = 0
KWVS 080155Z 10008KT 29/17 A2995 RMK A01 T02920170  RH  050%=      5-min Rain = 0
KWVS 080200Z 10007KT 29/17 A2995 RMK A01 T02890171  RH  051%=      5-min Rain = 0
KWVS 080205Z 10008KT 29/17 A2995 RMK A01 T02880171  RH  052%=      5-min Rain = 0
KWVS 080210Z 10008KT 29/17 A2995 RMK A01 T02870171  RH  052%=      5-min Rain = 0
KWVS 080215Z 10007KT 29/17 A2995 RMK A01 T02860172  RH  053%=      5-min Rain = 0
KWVS 080220Z 10008KT 28/17 A2996 RMK A01 T02840172  RH  053%=      5-min Rain = 0
KWVS 080225Z 10009KT 29/17 A2996 RMK A01 T02850172  RH  053%=      5-min Rain = 0
KWVS 080230Z 10009KT 28/17 A2996 RMK A01 T02840172  RH  053%=      5-min Rain = 0
KWVS 080235Z 10009KT 28/17 A2996 RMK A01 T02820173  RH  054%=      5-min Rain = 0
KWVS 080240Z 10009G14KT 28/17 A2997 RMK A01 T02820172  RH  054%=      5-min Rain = 0
KWVS 080245Z 10008KT 28/17 A2997 RMK A01 T02800173  RH  055%=      5-min Rain = 0
KWVS 080250Z 09008KT 28/17 A2997 RMK A01 T02790173  RH  055%=      5-min Rain = 0
KWVS 080255Z 10008KT 28/17 A2997 RMK A01 T02780173  RH  055%=      5-min Rain = 0
KWVS 080300Z 10007KT 28/17 A2997 RMK A01 T02770173  RH  056%=      5-min Rain = 0
KWVS 080305Z 09007KT 28/17 A2997 RMK A01 T02760173  RH  056%=      5-min Rain = 0
KWVS 080310Z 08007KT 27/18 A2997 RMK A01 T02740175  RH  058%=      5-min Rain = 0
KWVS 080315Z 08006KT 27/18 A2998 RMK A01 T02710176  RH  059%=      5-min Rain = 0
KWVS 080320Z 08006KT 27/18 A2998 RMK A01 T02680177  RH  061%=      5-min Rain = 0
KWVS 080325Z 09007KT 27/18 A2998 RMK A01 T02660177  RH  061%=      5-min Rain = 0
KWVS 080330Z 09007KT 27/18 A2998 RMK A01 T02670176  RH  061%=      5-min Rain = 0
KWVS 080335Z 09006KT 27/18 A2998 RMK A01 T02660176  RH  061%=      5-min Rain = 0
KWVS 080340Z 09007KT 27/18 A2998 RMK A01 T02660175  RH  060%=      5-min Rain = 0
KWVS 080345Z 08007KT 27/18 A2998 RMK A01 T02650176  RH  061%=      5-min Rain = 0
KWVS 080350Z 08006KT 26/18 A2998 RMK A01 T02630177  RH  062%=      5-min Rain = 0
KWVS 080355Z 08006KT 26/18 A2998 RMK A01 T02620177  RH  062%=      5-min Rain = 0
KWVS 080400Z 08006KT 26/18 A2999 RMK A01 T02620177  RH  063%=      5-min Rain = 0
KWVS 080405Z 09007KT 26/18 A2999 RMK A01 T02610177  RH  063%=      5-min Rain = 0
KWVS 080410Z 09007KT 26/18 A2999 RMK A01 T02600177  RH  063%=      5-min Rain = 0
KWVS 080415Z 09007KT 26/18 A2999 RMK A01 T02610177  RH  063%=      5-min Rain = 0
KWVS 080420Z 09007KT 26/18 A2998 RMK A01 T02600177  RH  063%=      5-min Rain = 0
KWVS 080425Z 08007KT 26/18 A2998 RMK A01 T02590177  RH  064%=      5-min Rain = 0
KWVS 080430Z 08006KT 26/18 A2999 RMK A01 T02580177  RH  064%=      5-min Rain = 0
KWVS 080435Z 08006KT 26/18 A2999 RMK A01 T02560178  RH  065%=      5-min Rain = 0
KWVS 080440Z 08006KT 26/18 A2999 RMK A01 T02550178  RH  066%=      5-min Rain = 0
KWVS 080445Z 09006KT 25/18 A2999 RMK A01 T02540178  RH  066%=      5-min Rain = 0
KWVS 080450Z 09006KT 25/18 A2999 RMK A01 T02540179  RH  066%=      5-min Rain = 0
KWVS 080455Z 09006KT 26/18 A2999 RMK A01 T02550178  RH  066%=      5-min Rain = 0

Page generated in 0.0089 seconds.